Decoded Metar for MPMG (PANAMA in PANAMA) (IATA:PAC) | Meteo·Mobile Aviation Weather
aviador You're here:

MPMG Decoded Metar

PANAMA in PANAMA
Report Time2019-03-22 14:00:00
UTC Time2019-03-22 14:36:01
Flight Rules vfr VFR
Wind350° at 09 kt
W.Decomp.*RWY 36: 8.9 kt HW 1.3 kt LCW
W.Rank350° ranks 6
Current wind is above 350° avg. (6.8)
Visibility9999 m
Phenomena:N/A
Clouds:Few 020 Hf
Expected CloudBase > 3,200 ft AGL from Temp-Dew spread
CeilingNone
Temp28°C (ISA +13)
Dew Point20°C (62% RH)
Heat Index29.7°C
QNH1014 hPa
Density Alt1,824 ft
Elevation43 ft
Report Wrong Elevation
Raw Report
MPMG 221400Z 35009KT 310V030 9999 FEW020 28/20 Q1014 NOSIG=

Extra information for MPMG:More info

Metar Taf Metar & Taf Last 4 Metars F.Rules Stats Wind Profile Meteogram Temp Stats Airport Information Weather charts Add Link Nearby VenuesMetar ALERT Operation Metar Decoded Social comments